Time;durP1;ratioP1;P1;durP2;ratioP2;P2;SDS_P1;SDS_P2;PMS_P1;PMS_P2;Temp;Humidity;BMP_temperature;BMP_pressure;BME280_temperature;BME280_humidity;BME280_pressure;Samples;Min_cycle;Max_cycle;Signal;HPM_P1;HPM_P2
2022/08/02 00:00:42;;;;;;;14.20;4.63;;;20.90;99.90;;;;;;4201826;28;20658;-85
2022/08/02 00:02:44;;;;;;;13.68;3.97;;;20.80;99.90;;;;;;4199419;28;20187;-89
2022/08/02 00:04:46;;;;;;;9.77;3.40;;;20.80;99.90;;;;;;4198797;28;20179;-86
2022/08/02 00:06:47;;;;;;;10.80;3.28;;;20.80;99.90;;;;;;4198282;28;20171;-90
2022/08/02 00:08:47;;;;;;;8.90;2.75;;;20.70;99.90;;;;;;4197320;28;20540;-85
2022/08/02 00:10:48;;;;;;;8.15;3.00;;;20.80;99.90;;;;;;4198141;28;20177;-96
2022/08/02 00:12:49;;;;;;;9.55;2.58;;;20.80;99.90;;;;;;4198715;28;20195;-85
2022/08/02 00:14:50;;;;;;;7.72;1.95;;;20.80;99.90;;;;;;4198790;28;20636;-85
2022/08/02 00:16:51;;;;;;;7.15;1.77;;;20.90;99.90;;;;;;4201040;28;20168;-96
2022/08/02 00:18:51;;;;;;;5.53;1.38;;;20.80;99.90;;;;;;4200002;28;20246;-85
2022/08/02 00:20:52;;;;;;;4.38;1.40;;;20.70;99.90;;;;;;4214937;28;20166;-85
2022/08/02 00:22:53;;;;;;;8.52;1.67;;;20.70;99.90;;;;;;4197688;28;20277;-85
2022/08/02 00:24:53;;;;;;;3.47;1.40;;;20.80;99.90;;;;;;4214996;28;20685;-86
2022/08/02 00:26:54;;;;;;;4.18;1.70;;;20.90;99.90;;;;;;4216856;28;20198;-86
2022/08/02 00:28:55;;;;;;;6.10;1.42;;;20.80;99.90;;;;;;4216069;28;20218;-85
2022/08/02 00:30:57;;;;;;;4.68;1.50;;;20.80;99.90;;;;;;4214214;28;20205;-86
2022/08/02 00:32:58;;;;;;;3.58;1.50;;;20.80;99.90;;;;;;4196974;28;20348;-85
2022/08/02 00:34:58;;;;;;;5.03;1.38;;;20.80;99.90;;;;;;4213713;28;20170;-86
2022/08/02 00:36:59;;;;;;;5.75;1.50;;;20.80;99.90;;;;;;4213793;28;20659;-86
2022/08/02 00:38:59;;;;;;;5.72;1.40;;;20.70;99.90;;;;;;4214055;28;20249;-84
2022/08/02 00:41:00;;;;;;;6.25;2.00;;;20.70;99.90;;;;;;4214403;28;20186;-85
2022/08/02 00:43:09;;;;;;;8.18;2.05;;;20.80;99.90;;;;;;4232549;28;20578;-94
2022/08/02 00:45:10;;;;;;;4.25;1.63;;;20.80;99.90;;;;;;4233089;28;20188;-85
2022/08/02 00:47:11;;;;;;;2.85;1.42;;;20.70;99.90;;;;;;4215348;28;20642;-85
2022/08/02 00:49:12;;;;;;;4.78;1.60;;;20.70;99.90;;;;;;4199559;28;20237;-85
2022/08/02 00:51:14;;;;;;;4.75;1.50;;;20.70;99.90;;;;;;4203590;28;20175;-85
2022/08/02 00:53:15;;;;;;;4.18;1.48;;;20.70;99.90;;;;;;4198356;28;20705;-85
2022/08/02 00:55:15;;;;;;;6.38;1.45;;;20.70;99.90;;;;;;4217852;28;20190;-87
2022/08/02 00:57:16;;;;;;;4.30;1.65;;;20.70;99.90;;;;;;4203079;28;20175;-85
2022/08/02 00:59:17;;;;;;;7.63;1.77;;;20.70;99.90;;;;;;4218334;28;20263;-94
2022/08/02 01:01:17;;;;;;;3.22;1.52;;;20.70;99.90;;;;;;4201701;28;20171;-89
2022/08/02 01:03:18;;;;;;;4.57;1.60;;;20.70;99.90;;;;;;4216815;28;20197;-86
2022/08/02 01:05:19;;;;;;;4.78;1.52;;;20.60;99.90;;;;;;4218462;28;20170;-95
2022/08/02 01:07:20;;;;;;;3.88;1.58;;;20.60;99.90;;;;;;4202031;28;20258;-95
2022/08/02 01:09:20;;;;;;;4.20;1.70;;;20.60;99.90;;;;;;4235364;28;20278;-93
2022/08/02 01:11:21;;;;;;;7.30;1.48;;;20.60;99.90;;;;;;4217526;28;20618;-85
2022/08/02 01:13:22;;;;;;;5.03;1.40;;;20.50;99.90;;;;;;4201684;28;20187;-85
2022/08/02 01:15:23;;;;;;;2.42;1.38;;;20.50;99.90;;;;;;4201876;28;20197;-96
2022/08/02 01:17:57;;;;;;;5.72;1.73;;;20.50;99.90;;;;;;4219024;28;20257;-85
2022/08/02 01:20:16;;;;;;;3.00;1.35;;;20.60;99.90;;;;;;4202029;28;20740;-95
2022/08/02 01:22:32;;;;;;;4.72;1.73;;;20.50;99.90;;;;;;4218598;28;20193;-88
2022/08/02 01:24:51;;;;;;;4.47;1.63;;;20.60;99.90;;;;;;4235390;28;20203;-96
2022/08/02 01:27:19;;;;;;;7.18;1.83;;;20.50;99.90;;;;;;4217984;28;20172;-85
2022/08/02 01:29:42;;;;;;;5.07;1.70;;;20.50;99.90;;;;;;4235138;28;20245;-95
2022/08/02 01:31:48;;;;;;;3.80;1.70;;;20.50;99.90;;;;;;4234369;28;20181;-85
2022/08/02 01:34:15;;;;;;;4.07;1.92;;;20.40;99.90;;;;;;4217468;28;20285;-85
2022/08/02 01:36:19;;;;;;;4.50;1.98;;;20.40;99.90;;;;;;4201511;28;20212;-86
2022/08/02 01:38:31;;;;;;;5.25;2.00;;;20.40;99.90;;;;;;4236868;28;20161;-95
2022/08/02 01:40:36;;;;;;;9.23;2.13;;;20.40;99.90;;;;;;4220137;28;20173;-96
2022/08/02 01:42:42;;;;;;;5.95;2.08;;;20.40;99.90;;;;;;4220379;28;20190;-94
2022/08/02 01:44:44;;;;;;;6.13;1.92;;;20.40;99.90;;;;;;4219196;28;20178;-85
2022/08/02 01:46:46;;;;;;;5.95;2.10;;;20.30;99.90;;;;;;4204548;28;20167;-85
2022/08/02 01:48:49;;;;;;;4.25;1.88;;;20.30;99.90;;;;;;4222093;28;20624;-86
2022/08/02 01:50:52;;;;;;;4.50;2.03;;;20.20;99.90;;;;;;4219192;28;20236;-85
2022/08/02 01:52:56;;;;;;;7.65;2.38;;;20.20;99.90;;;;;;4235674;28;20715;-85
2022/08/02 01:55:10;;;;;;;5.80;2.30;;;20.20;99.90;;;;;;4218453;28;20174;-85
2022/08/02 01:57:13;;;;;;;7.47;2.53;;;20.20;99.90;;;;;;4200692;28;20567;-85
2022/08/02 01:59:19;;;;;;;4.97;2.30;;;20.10;99.90;;;;;;4201099;28;20243;-85
2022/08/02 02:01:21;;;;;;;5.35;2.83;;;20.10;99.90;;;;;;4217478;28;20576;-85
2022/08/02 02:03:24;;;;;;;8.43;2.72;;;20.10;99.90;;;;;;4216354;28;20188;-85
2022/08/02 02:05:28;;;;;;;8.25;2.33;;;20.10;99.90;;;;;;4200770;28;20186;-85
2022/08/02 02:07:32;;;;;;;10.25;2.33;;;20.00;99.90;;;;;;4219471;28;20223;-85
2022/08/02 02:09:37;;;;;;;8.13;2.67;;;20.00;99.90;;;;;;4201552;28;20218;-96
2022/08/02 02:11:41;;;;;;;6.10;2.50;;;20.00;99.90;;;;;;4218401;28;20170;-86
2022/08/02 02:13:42;;;;;;;6.80;2.40;;;20.00;99.90;;;;;;4202855;28;20236;-85
2022/08/02 02:15:47;;;;;;;7.75;2.55;;;20.00;99.90;;;;;;4218195;28;20174;-95
2022/08/02 02:17:51;;;;;;;7.97;2.63;;;20.00;99.90;;;;;;4216306;28;20174;-86
2022/08/02 02:19:53;;;;;;;4.60;2.20;;;20.00;99.90;;;;;;4234555;28;20161;-86
2022/08/02 02:21:55;;;;;;;6.03;2.22;;;20.00;99.90;;;;;;4218818;28;21228;-85
2022/08/02 02:23:58;;;;;;;7.60;3.00;;;19.90;99.90;;;;;;4217950;28;20261;-85
2022/08/02 02:25:59;;;;;;;5.13;2.30;;;19.90;99.90;;;;;;4220469;28;20673;-86
2022/08/02 02:28:04;;;;;;;4.28;2.20;;;19.80;99.90;;;;;;4220112;28;20253;-95
2022/08/02 02:30:06;;;;;;;7.80;2.60;;;19.70;99.90;;;;;;4201647;28;20210;-95
2022/08/02 02:32:07;;;;;;;8.55;2.85;;;19.60;99.90;;;;;;4183085;28;20195;-86
2022/08/02 02:34:12;;;;;;;9.82;3.13;;;19.60;99.90;;;;;;4201296;28;20175;-91
2022/08/02 02:36:15;;;;;;;8.20;2.92;;;19.60;99.90;;;;;;4217860;28;20178;-85
2022/08/02 02:38:19;;;;;;;8.30;2.88;;;19.60;99.90;;;;;;4203400;28;20171;-86
2022/08/02 02:40:20;;;;;;;4.93;3.10;;;19.50;99.90;;;;;;4218370;28;20167;-86
2022/08/02 02:42:30;;;;;;;5.60;2.80;;;19.70;99.90;;;;;;4217260;28;20196;-85
2022/08/02 02:44:32;;;;;;;6.45;3.10;;;19.60;99.90;;;;;;4216873;28;20166;-90
2022/08/02 02:46:33;;;;;;;6.90;3.15;;;19.60;99.90;;;;;;4237481;28;20203;-93
2022/08/02 02:48:35;;;;;;;9.57;2.72;;;19.70;99.90;;;;;;4234849;28;20272;-87
2022/08/02 02:50:37;;;;;;;5.13;2.83;;;19.70;99.90;;;;;;4234710;28;20177;-85
2022/08/02 02:52:39;;;;;;;4.78;2.47;;;19.70;99.90;;;;;;4236804;28;20192;-95
2022/08/02 02:54:42;;;;;;;6.55;2.75;;;19.80;99.90;;;;;;4217658;28;20201;-85
2022/08/02 02:56:44;;;;;;;8.05;2.78;;;19.80;99.90;;;;;;4216335;28;20689;-85
2022/08/02 02:58:45;;;;;;;12.43;3.33;;;19.80;99.90;;;;;;4216531;28;20179;-86
2022/08/02 03:03:08;;;;;;;6.97;3.10;;;19.80;99.90;;;;;;4218520;28;20186;-85
2022/08/02 03:05:10;;;;;;;5.45;3.28;;;19.70;99.90;;;;;;4215868;28;20172;-85
2022/08/02 03:07:11;;;;;;;9.65;3.55;;;19.70;99.90;;;;;;4217031;28;20174;-86
2022/08/02 03:09:12;;;;;;;6.85;3.47;;;19.70;99.90;;;;;;4201609;28;20209;-96
2022/08/02 03:11:13;;;;;;;8.15;3.63;;;19.70;99.90;;;;;;4219149;28;20163;-92
2022/08/02 03:13:16;;;;;;;7.10;2.85;;;19.60;99.90;;;;;;4216720;28;20213;-85
2022/08/02 03:15:17;;;;;;;6.60;3.47;;;19.60;99.90;;;;;;4219991;28;20169;-86
2022/08/02 03:17:18;;;;;;;5.30;2.45;;;19.50;99.90;;;;;;4218865;28;20796;-85
2022/08/02 03:19:20;;;;;;;7.50;2.55;;;19.50;99.90;;;;;;4199760;28;20224;-95
2022/08/02 03:21:22;;;;;;;6.32;2.65;;;19.50;99.90;;;;;;4217438;28;20184;-86
2022/08/02 03:23:22;;;;;;;8.48;2.80;;;19.50;99.90;;;;;;4233252;28;20190;-85
2022/08/02 03:25:23;;;;;;;4.63;2.95;;;19.50;99.90;;;;;;4200634;28;20670;-85
2022/08/02 03:27:24;;;;;;;4.82;2.97;;;19.50;99.90;;;;;;4218214;28;20260;-93
2022/08/02 03:29:24;;;;;;;7.28;3.35;;;19.50;99.90;;;;;;4218034;28;20209;-85
2022/08/02 03:31:25;;;;;;;7.20;3.03;;;19.40;99.90;;;;;;4219525;28;20173;-92
2022/08/02 03:33:27;;;;;;;7.28;2.95;;;19.50;99.90;;;;;;4209694;28;20226;-87
2022/08/02 03:35:28;;;;;;;5.43;2.92;;;19.40;99.90;;;;;;4205926;28;20190;-96
2022/08/02 03:37:30;;;;;;;6.22;2.97;;;19.40;99.90;;;;;;4216994;28;20649;-85
2022/08/02 03:39:32;;;;;;;5.93;2.85;;;19.40;99.90;;;;;;4217343;28;20241;-85
2022/08/02 03:41:35;;;;;;;5.43;2.58;;;19.40;99.90;;;;;;4219505;28;20735;-89
2022/08/02 03:43:37;;;;;;;6.03;2.80;;;19.40;99.90;;;;;;4201297;28;20551;-85
2022/08/02 03:45:43;;;;;;;6.38;3.08;;;19.30;99.90;;;;;;4218676;28;20627;-86
2022/08/02 03:47:43;;;;;;;6.22;2.60;;;19.30;99.90;;;;;;4200942;28;20170;-85
2022/08/02 03:49:45;;;;;;;6.15;3.17;;;19.30;99.90;;;;;;4216971;28;20324;-85
2022/08/02 03:51:46;;;;;;;6.15;2.92;;;19.30;99.90;;;;;;4219174;28;20534;-85
2022/08/02 03:53:48;;;;;;;6.45;3.10;;;19.20;99.90;;;;;;4217132;28;20560;-88
2022/08/02 03:55:49;;;;;;;6.13;3.22;;;19.10;99.90;;;;;;4216435;28;20297;-96
2022/08/02 03:57:50;;;;;;;6.88;3.38;;;19.10;99.90;;;;;;4215034;28;20177;-94
2022/08/02 03:59:51;;;;;;;4.78;2.92;;;19.00;99.90;;;;;;4200449;28;20166;-85
2022/08/02 04:01:51;;;;;;;6.97;3.85;;;19.00;99.90;;;;;;4199277;28;20167;-85
2022/08/02 04:03:52;;;;;;;8.13;3.60;;;19.00;99.90;;;;;;4216417;28;20185;-85
2022/08/02 04:05:53;;;;;;;7.75;3.67;;;18.90;99.90;;;;;;4218098;28;20688;-95
2022/08/02 04:07:53;;;;;;;5.43;3.15;;;18.90;99.90;;;;;;4214992;28;20182;-85
2022/08/02 04:09:54;;;;;;;5.85;3.67;;;18.90;99.90;;;;;;4215071;28;20214;-96
2022/08/02 04:11:55;;;;;;;5.80;3.78;;;18.90;99.90;;;;;;4215214;28;20192;-86
2022/08/02 04:13:57;;;;;;;9.70;3.67;;;18.80;99.90;;;;;;4215382;28;20178;-86
2022/08/02 04:16:05;;;;;;;7.47;3.83;;;18.80;99.90;;;;;;4215195;28;20680;-85
2022/08/02 04:18:06;;;;;;;6.20;3.75;;;18.70;99.90;;;;;;4216293;28;20173;-85
2022/08/02 04:20:16;;;;;;;7.22;3.78;;;18.70;99.90;;;;;;4233429;28;20634;-85
2022/08/02 04:22:42;;;;;;;7.28;4.05;;;18.70;99.90;;;;;;4215159;28;20276;-85
2022/08/02 04:24:49;;;;;;;7.50;4.32;;;18.60;99.90;;;;;;4201670;28;20242;-92
2022/08/02 04:26:55;;;;;;;7.68;4.05;;;18.60;99.90;;;;;;4198964;28;20170;-85
2022/08/02 04:28:57;;;;;;;6.95;3.95;;;18.60;99.90;;;;;;4218360;28;20686;-85
2022/08/02 04:30:59;;;;;;;10.75;4.15;;;18.60;99.90;;;;;;4202368;28;20206;-85
2022/08/02 04:33:00;;;;;;;9.82;5.03;;;18.60;99.90;;;;;;4205339;28;20214;-86
2022/08/02 04:35:01;;;;;;;9.50;4.68;;;18.60;99.90;;;;;;4217048;28;20265;-85
2022/08/02 04:37:02;;;;;;;8.88;5.20;;;18.60;99.90;;;;;;4200814;28;20749;-85
2022/08/02 04:39:03;;;;;;;7.47;4.40;;;18.60;99.90;;;;;;4218116;28;20244;-86
2022/08/02 04:41:04;;;;;;;11.98;5.88;;;18.60;99.90;;;;;;4200617;28;20162;-85
2022/08/02 04:43:05;;;;;;;10.43;4.80;;;18.60;99.90;;;;;;4202532;28;20615;-85
2022/08/02 04:45:08;;;;;;;10.88;5.28;;;18.50;99.90;;;;;;4234391;28;20172;-85
2022/08/02 04:47:09;;;;;;;10.52;5.45;;;18.50;99.90;;;;;;4217780;28;20216;-85
2022/08/02 04:49:10;;;;;;;10.60;5.90;;;18.50;99.90;;;;;;4217967;28;20205;-85
2022/08/02 04:51:11;;;;;;;8.85;5.70;;;18.50;99.90;;;;;;4219797;28;20177;-89
2022/08/02 04:53:12;;;;;;;11.52;5.38;;;18.50;99.90;;;;;;4200864;28;20186;-86
2022/08/02 04:55:12;;;;;;;9.57;5.88;;;18.40;99.90;;;;;;4219014;28;20173;-85
2022/08/02 04:59:32;;;;;;;11.07;5.45;;;18.30;99.90;;;;;;4234271;28;20173;-85
2022/08/02 05:01:34;;;;;;;9.52;6.20;;;18.40;99.90;;;;;;4235022;28;20180;-86
2022/08/02 05:03:35;;;;;;;9.15;5.85;;;18.40;99.90;;;;;;4217991;28;20170;-86
2022/08/02 05:05:35;;;;;;;9.45;6.30;;;18.40;99.90;;;;;;4200299;28;20196;-86
2022/08/02 05:07:36;;;;;;;11.85;6.25;;;18.40;99.90;;;;;;4219195;28;20592;-86
2022/08/02 05:09:37;;;;;;;9.88;6.50;;;18.40;99.90;;;;;;4236166;28;20279;-85
2022/08/02 05:11:37;;;;;;;8.05;5.68;;;18.50;99.90;;;;;;4200835;28;20178;-86
2022/08/02 05:13:40;;;;;;;13.13;6.13;;;18.50;99.90;;;;;;4236371;28;20677;-85
2022/08/02 05:15:41;;;;;;;11.52;6.40;;;18.60;99.90;;;;;;4218615;28;20207;-85
2022/08/02 05:17:43;;;;;;;15.45;6.13;;;18.60;99.90;;;;;;4223319;28;20170;-94
2022/08/02 05:19:44;;;;;;;13.65;6.25;;;18.70;99.90;;;;;;4221781;28;20551;-86
2022/08/02 05:21:44;;;;;;;8.98;5.82;;;18.60;99.90;;;;;;4217588;28;20185;-86
2022/08/02 05:23:45;;;;;;;14.38;6.05;;;18.60;99.90;;;;;;4217933;28;20261;-86
2022/08/02 05:25:46;;;;;;;12.63;6.20;;;18.70;99.90;;;;;;4217679;28;20173;-86
2022/08/02 05:27:47;;;;;;;11.00;6.60;;;18.70;99.90;;;;;;4219641;28;20250;-86
2022/08/02 05:29:50;;;;;;;9.70;5.68;;;18.70;99.90;;;;;;4235111;28;20213;-86
2022/08/02 05:31:51;;;;;;;11.70;6.50;;;18.80;99.90;;;;;;4217342;28;20171;-86
2022/08/02 05:33:52;;;;;;;12.18;6.20;;;18.80;99.90;;;;;;4201190;28;20248;-86
2022/08/02 05:35:52;;;;;;;10.70;6.30;;;18.90;99.90;;;;;;4220761;28;20252;-88
2022/08/02 05:37:53;;;;;;;14.27;6.63;;;18.90;99.90;;;;;;4217398;28;20169;-85
2022/08/02 05:39:54;;;;;;;15.80;6.32;;;19.00;99.90;;;;;;4217461;28;20234;-86
2022/08/02 05:41:54;;;;;;;17.33;5.90;;;19.00;99.90;;;;;;4219365;28;20174;-85
2022/08/02 05:43:55;;;;;;;10.80;5.82;;;18.90;99.90;;;;;;4200642;28;20175;-86
2022/08/02 05:45:56;;;;;;;11.32;5.90;;;18.90;99.90;;;;;;4201972;28;20573;-86
2022/08/02 05:47:56;;;;;;;13.68;5.78;;;19.00;99.90;;;;;;4201155;28;20170;-85
2022/08/02 05:49:57;;;;;;;9.23;5.60;;;19.00;99.90;;;;;;4199616;28;20678;-85
2022/08/02 05:52:06;;;;;;;14.45;6.55;;;18.90;99.90;;;;;;4200089;28;20191;-86
2022/08/02 05:54:18;;;;;;;16.15;6.22;;;18.90;99.90;;;;;;4218308;28;20157;-86
2022/08/02 05:56:32;;;;;;;11.20;6.10;;;19.00;99.90;;;;;;4201861;28;20246;-90
2022/08/02 05:58:49;;;;;;;13.80;5.85;;;19.10;99.90;;;;;;4216006;28;20543;-86
2022/08/02 06:00:52;;;;;;;10.60;6.20;;;19.20;99.90;;;;;;4233990;28;20177;-86
2022/08/02 06:03:15;;;;;;;11.98;5.90;;;19.30;99.90;;;;;;4234530;28;20257;-85
2022/08/02 06:05:19;;;;;;;11.07;5.88;;;19.20;99.90;;;;;;4217343;28;20650;-86
2022/08/02 06:07:22;;;;;;;12.77;5.50;;;19.20;99.90;;;;;;4219328;28;20154;-86
2022/08/02 06:09:25;;;;;;;8.20;5.40;;;19.40;99.90;;;;;;4201342;28;20236;-86
2022/08/02 06:11:37;;;;;;;9.38;4.88;;;19.50;99.90;;;;;;4201428;28;20178;-87
2022/08/02 06:13:40;;;;;;;7.95;4.30;;;19.50;99.90;;;;;;4201137;28;20523;-86
2022/08/02 06:15:41;;;;;;;17.70;5.68;;;19.60;99.90;;;;;;4219278;28;20209;-95
2022/08/02 06:17:43;;;;;;;8.30;4.90;;;19.70;99.90;;;;;;4216780;28;20174;-86
2022/08/02 06:19:45;;;;;;;8.88;4.60;;;19.70;99.90;;;;;;4199916;28;20191;-95
2022/08/02 06:21:48;;;;;;;12.30;4.95;;;19.70;99.90;;;;;;4218400;28;20593;-85
2022/08/02 06:23:50;;;;;;;10.07;4.28;;;19.90;99.90;;;;;;4200609;28;20201;-86
2022/08/02 06:25:52;;;;;;;10.20;5.25;;;20.00;99.90;;;;;;4183343;28;20644;-91
2022/08/02 06:28:02;;;;;;;9.40;5.40;;;20.00;99.90;;;;;;4200601;28;20213;-86
2022/08/02 06:30:04;;;;;;;13.70;5.35;;;20.10;99.90;;;;;;4217544;28;20215;-85
2022/08/02 06:32:06;;;;;;;10.68;4.65;;;20.10;99.90;;;;;;4201377;28;20190;-86
2022/08/02 06:34:07;;;;;;;9.60;4.47;;;20.40;99.90;;;;;;4200833;28;20170;-86
2022/08/02 06:36:49;;;;;;;8.73;4.55;;;20.30;99.90;;;;;;4219062;28;20164;-89
2022/08/02 06:39:05;;;;;;;6.25;3.88;;;20.30;99.90;;;;;;4158488;28;20595;-86
2022/08/02 06:41:09;;;;;;;8.90;4.13;;;20.30;99.90;;;;;;4215283;28;20227;-85
2022/08/02 06:43:20;;;;;;;11.15;4.47;;;20.30;99.90;;;;;;4198424;28;20206;-88
2022/08/02 06:45:21;;;;;;;12.25;4.45;;;20.50;99.90;;;;;;4215425;28;20173;-86
2022/08/02 06:47:22;;;;;;;6.70;4.28;;;20.70;99.90;;;;;;4216225;28;20170;-86
2022/08/02 06:49:22;;;;;;;11.48;5.00;;;20.90;99.90;;;;;;4216643;28;20254;-86
2022/08/02 06:51:23;;;;;;;9.57;4.75;;;20.80;99.90;;;;;;4200619;28;20183;-86
2022/08/02 06:53:24;;;;;;;11.02;4.30;;;20.80;99.90;;;;;;4200058;28;20198;-88
2022/08/02 06:55:24;;;;;;;10.45;4.00;;;20.70;99.90;;;;;;4199433;28;20194;-86
2022/08/02 06:57:28;;;;;;;10.32;4.15;;;20.70;99.90;;;;;;4199107;28;20206;-86
2022/08/02 06:59:29;;;;;;;10.05;4.28;;;20.80;99.90;;;;;;4198339;28;20214;-95
2022/08/02 07:01:30;;;;;;;6.45;3.78;;;20.90;99.90;;;;;;4215418;28;20178;-86
2022/08/02 07:03:50;;;;;;;10.38;4.07;;;20.90;99.90;;;;;;4216873;28;20765;-85
2022/08/02 07:05:53;;;;;;;9.73;3.97;;;21.10;99.90;;;;;;4201747;28;20171;-86
2022/08/02 07:07:55;;;;;;;9.98;4.25;;;21.40;99.90;;;;;;4215549;28;20542;-86
2022/08/02 07:09:57;;;;;;;10.20;3.95;;;21.50;99.90;;;;;;4199217;28;20696;-86
2022/08/02 07:11:58;;;;;;;9.05;3.63;;;21.40;99.90;;;;;;4215376;28;20193;-85
2022/08/02 07:13:58;;;;;;;10.82;4.07;;;21.30;99.90;;;;;;4216192;28;20181;-85
2022/08/02 07:16:00;;;;;;;7.85;4.18;;;21.40;99.90;;;;;;4200557;28;20205;-86
2022/08/02 07:18:01;;;;;;;8.27;3.35;;;21.50;99.90;;;;;;4219410;28;20174;-96
2022/08/02 07:20:02;;;;;;;10.43;3.72;;;22.40;99.90;;;;;;4216745;28;20307;-86
2022/08/02 07:22:03;;;;;;;10.50;2.60;;;23.30;99.90;;;;;;4198671;28;20198;-87
2022/08/02 07:24:04;;;;;;;6.97;3.15;;;24.50;99.90;;;;;;4218693;28;20186;-92
2022/08/02 07:26:05;;;;;;;6.78;2.67;;;25.60;99.90;;;;;;4216542;28;20174;-86
2022/08/02 07:28:08;;;;;;;5.68;2.80;;;26.90;99.90;;;;;;4216887;28;20618;-87
2022/08/02 07:30:10;;;;;;;5.60;2.60;;;27.50;99.90;;;;;;4199118;28;20206;-86
2022/08/02 07:32:10;;;;;;;5.78;2.53;;;28.10;99.90;;;;;;4198696;28;20194;-86
2022/08/02 07:34:14;;;;;;;4.72;2.60;;;28.60;99.90;;;;;;4199072;28;20250;-87
2022/08/02 07:36:15;;;;;;;6.05;2.45;;;29.50;99.90;;;;;;4217937;28;20174;-87
2022/08/02 07:38:16;;;;;;;6.25;2.08;;;30.80;99.90;;;;;;4218523;28;20166;-86
2022/08/02 07:40:17;;;;;;;5.68;2.08;;;31.20;99.90;;;;;;4216597;28;20169;-86
2022/08/02 07:42:21;;;;;;;3.80;2.00;;;31.10;99.90;;;;;;4199112;28;20189;-88
2022/08/02 07:44:22;;;;;;;3.50;1.90;;;31.40;99.90;;;;;;4199695;28;20182;-86
2022/08/02 07:46:23;;;;;;;5.18;2.15;;;32.00;99.90;;;;;;4217299;28;20249;-86
2022/08/02 07:48:23;;;;;;;4.68;2.30;;;31.90;99.90;;;;;;4217415;28;20227;-85
2022/08/02 07:50:24;;;;;;;7.32;2.63;;;32.80;99.90;;;;;;4235980;28;20288;-86
2022/08/02 07:52:25;;;;;;;5.97;2.00;;;33.70;99.90;;;;;;4236948;28;20195;-86
2022/08/02 07:54:25;;;;;;;4.75;2.65;;;33.50;99.90;;;;;;4218337;28;20173;-87
2022/08/02 07:56:26;;;;;;;4.05;2.40;;;34.30;99.90;;;;;;4201141;28;20198;-86
2022/08/02 07:58:27;;;;;;;3.38;2.05;;;34.70;99.90;;;;;;4218233;28;20166;-86
2022/08/02 08:00:27;;;;;;;5.97;2.17;;;35.50;99.90;;;;;;4233891;28;20248;-87
2022/08/02 08:02:28;;;;;;;6.28;2.35;;;34.50;99.90;;;;;;4203261;28;20198;-86
2022/08/02 08:04:29;;;;;;;8.18;2.20;;;34.80;99.90;;;;;;4222561;28;20180;-92
2022/08/02 08:06:30;;;;;;;5.80;2.22;;;35.10;99.90;;;;;;4223246;28;20173;-87
2022/08/02 08:08:32;;;;;;;4.70;1.92;;;35.50;99.90;;;;;;4205407;28;20202;-87
2022/08/02 08:10:33;;;;;;;5.18;2.00;;;35.40;99.90;;;;;;4222291;28;20284;-86
2022/08/02 08:12:34;;;;;;;4.05;1.90;;;35.40;99.90;;;;;;4219140;28;20190;-86
2022/08/02 08:14:37;;;;;;;2.78;1.60;;;34.40;99.90;;;;;;4220140;28;20185;-88
2022/08/02 08:16:41;;;;;;;6.80;1.75;;;34.50;99.90;;;;;;4219419;28;20173;-87
2022/08/02 08:18:42;;;;;;;4.95;2.00;;;34.50;99.90;;;;;;4220491;28;20181;-86
2022/08/02 08:20:43;;;;;;;5.93;1.90;;;34.30;99.90;;;;;;4221633;28;20170;-87
2022/08/02 08:22:44;;;;;;;7.05;1.60;;;34.10;99.90;;;;;;4220467;28;20762;-86
2022/08/02 08:24:45;;;;;;;4.28;2.00;;;35.10;99.90;;;;;;4218889;28;20189;-86
2022/08/02 08:26:45;;;;;;;4.68;1.60;;;34.30;99.90;;;;;;4220677;28;20232;-94
2022/08/02 08:28:46;;;;;;;3.53;1.40;;;34.10;99.90;;;;;;4219692;28;20264;-93
2022/08/02 08:30:47;;;;;;;3.33;1.42;;;33.80;99.90;;;;;;4202758;28;20187;-86
2022/08/02 08:32:48;;;;;;;6.05;1.58;;;33.90;99.90;;;;;;4220092;28;20205;-89
2022/08/02 08:34:50;;;;;;;2.67;1.48;;;33.60;99.90;;;;;;4217041;28;20162;-86
2022/08/02 08:36:50;;;;;;;3.58;1.60;;;33.90;99.90;;;;;;4220130;28;20169;-86
2022/08/02 08:38:51;;;;;;;8.20;1.55;;;34.00;99.90;;;;;;4220288;28;20169;-85
2022/08/02 08:40:52;;;;;;;3.90;1.60;;;33.50;99.90;;;;;;4219433;28;20169;-88
2022/08/02 08:42:52;;;;;;;3.30;1.35;;;33.70;99.90;;;;;;4203493;28;20672;-87
2022/08/02 08:44:55;;;;;;;4.43;1.45;;;34.70;99.90;;;;;;4218075;28;20265;-86
2022/08/02 08:46:59;;;;;;;5.78;1.50;;;34.50;99.90;;;;;;4201318;28;20177;-90
2022/08/02 08:49:09;;;;;;;3.42;1.25;;;34.80;99.90;;;;;;4218724;28;20205;-86
2022/08/02 08:51:13;;;;;;;4.00;1.63;;;34.60;99.90;;;;;;4201847;28;20172;-85
2022/08/02 08:53:16;;;;;;;4.72;1.30;;;33.40;99.90;;;;;;4203213;28;20293;-86
2022/08/02 08:55:17;;;;;;;1.75;1.10;;;33.80;99.90;;;;;;4218984;28;20162;-87
2022/08/02 08:57:28;;;;;;;4.88;1.23;;;34.20;99.90;;;;;;4221350;28;20173;-86
2022/08/02 08:59:29;;;;;;;2.25;1.20;;;34.40;99.90;;;;;;4237350;28;20276;-88
2022/08/02 09:01:30;;;;;;;4.80;1.30;;;34.10;99.90;;;;;;4220332;28;20690;-86
2022/08/02 09:03:30;;;;;;;4.55;1.30;;;34.70;99.90;;;;;;4201235;28;20186;-86
2022/08/02 09:05:34;;;;;;;4.72;1.25;;;33.80;99.90;;;;;;4219465;28;20274;-95
2022/08/02 09:07:35;;;;;;;2.67;1.20;;;33.70;99.90;;;;;;4218498;28;20173;-86
2022/08/02 09:09:36;;;;;;;2.08;1.20;;;33.40;99.90;;;;;;4234208;28;20180;-87
2022/08/02 09:11:37;;;;;;;2.40;1.40;;;33.40;99.90;;;;;;4217539;28;20166;-86
2022/08/02 09:13:38;;;;;;;5.97;1.58;;;32.50;99.90;;;;;;4201853;28;20193;-95
2022/08/02 09:15:41;;;;;;;7.75;1.90;;;32.40;99.90;;;;;;4201671;28;20239;-86
2022/08/02 09:17:52;;;;;;;4.22;1.30;;;31.80;99.90;;;;;;4218149;28;20622;-86
2022/08/02 09:20:08;;;;;;;6.20;1.17;;;31.60;99.90;;;;;;4218783;28;20260;-86
2022/08/02 09:22:11;;;;;;;3.13;1.13;;;31.10;99.90;;;;;;4218922;28;20169;-86
2022/08/02 09:24:22;;;;;;;3.25;1.08;;;30.20;99.90;;;;;;4219422;28;20199;-85
2022/08/02 09:26:23;;;;;;;2.92;1.10;;;30.30;99.90;;;;;;4219251;28;20495;-89
2022/08/02 09:28:28;;;;;;;1.95;0.98;;;30.30;99.90;;;;;;4220055;28;20637;-95
2022/08/02 09:30:30;;;;;;;5.78;1.05;;;31.50;99.90;;;;;;4236379;28;20261;-86
2022/08/02 09:32:44;;;;;;;12.70;1.40;;;32.00;99.90;;;;;;4233462;28;20223;-85
2022/08/02 09:34:52;;;;;;;5.05;1.70;;;31.90;99.90;;;;;;4220172;28;20256;-86
2022/08/02 09:36:53;;;;;;;3.00;1.10;;;32.80;99.90;;;;;;4219582;28;20170;-87
2022/08/02 09:38:56;;;;;;;2.85;1.20;;;32.50;99.90;;;;;;4219085;28;20230;-88
2022/08/02 09:40:58;;;;;;;3.15;1.10;;;32.70;99.90;;;;;;4218639;28;20175;-86
2022/08/02 09:42:59;;;;;;;4.68;1.10;;;32.80;99.90;;;;;;4237527;28;20204;-86
2022/08/02 09:45:01;;;;;;;6.90;1.20;;;32.50;99.90;;;;;;4217330;28;20260;-86
2022/08/02 09:47:13;;;;;;;3.00;1.20;;;32.10;99.90;;;;;;4200383;28;20204;-86
2022/08/02 09:49:15;;;;;;;5.45;1.17;;;31.90;99.90;;;;;;4216451;28;20189;-86
2022/08/02 09:51:26;;;;;;;2.55;1.10;;;31.90;99.90;;;;;;4219836;28;20169;-87
2022/08/02 09:53:29;;;;;;;5.57;1.17;;;31.50;99.90;;;;;;4201249;28;20202;-86
2022/08/02 09:55:30;;;;;;;2.95;1.10;;;31.20;99.90;;;;;;4200430;28;20171;-86
2022/08/02 09:57:37;;;;;;;2.53;1.10;;;32.00;99.90;;;;;;4217583;28;20196;-87
2022/08/02 09:59:51;;;;;;;2.83;1.00;;;31.80;99.90;;;;;;4216671;28;20241;-88
2022/08/02 10:01:53;;;;;;;3.63;1.00;;;31.20;99.90;;;;;;4202224;28;20205;-86
2022/08/02 10:03:59;;;;;;;3.42;0.95;;;31.20;99.90;;;;;;4219362;28;20174;-86
2022/08/02 10:06:00;;;;;;;2.58;0.90;;;31.30;99.90;;;;;;4201690;28;20532;-86
2022/08/02 10:08:01;;;;;;;6.05;1.00;;;31.20;99.90;;;;;;4218747;28;20173;-86
2022/08/02 10:10:02;;;;;;;3.45;1.15;;;31.40;99.90;;;;;;4217384;28;20575;-87
2022/08/02 10:12:04;;;;;;;3.03;1.05;;;31.80;99.90;;;;;;4235039;28;20204;-86
2022/08/02 10:14:06;;;;;;;1.75;0.80;;;32.30;99.90;;;;;;4235801;28;20248;-86
2022/08/02 10:16:07;;;;;;;3.08;0.82;;;32.50;99.90;;;;;;4218723;28;20177;-86
2022/08/02 10:18:08;;;;;;;1.70;0.88;;;32.50;99.90;;;;;;4218309;28;20527;-88
2022/08/02 10:20:09;;;;;;;2.92;0.80;;;32.70;99.90;;;;;;4216689;28;20205;-86
2022/08/02 10:22:11;;;;;;;2.28;0.95;;;33.40;99.90;;;;;;4218289;28;20208;-89
2022/08/02 10:24:21;;;;;;;2.85;0.90;;;32.90;99.90;;;;;;4217028;28;20165;-86
2022/08/02 10:26:23;;;;;;;2.55;0.90;;;32.50;99.90;;;;;;4219777;28;20176;-87
2022/08/02 10:28:32;;;;;;;4.90;0.90;;;32.40;99.90;;;;;;4218689;28;20185;-87
2022/08/02 10:30:39;;;;;;;6.30;1.42;;;31.80;99.90;;;;;;4217524;28;20170;-87
2022/08/02 10:32:44;;;;;;;2.42;0.77;;;31.30;99.90;;;;;;4201922;28;20190;-86
2022/08/02 10:34:48;;;;;;;3.90;1.00;;;31.10;99.90;;;;;;4216917;28;20225;-86
2022/08/02 10:36:50;;;;;;;8.40;0.82;;;30.50;99.90;;;;;;4216353;28;20640;-85
2022/08/02 10:38:51;;;;;;;2.72;0.77;;;29.90;99.90;;;;;;4232612;28;20672;-86
2022/08/02 10:40:53;;;;;;;3.42;0.70;;;29.60;99.90;;;;;;4217199;28;20163;-85
2022/08/02 10:43:38;;;;;;;4.93;0.80;;;29.70;99.90;;;;;;4218635;28;20538;-85
2022/08/02 10:45:42;;;;;;;5.03;1.00;;;29.90;99.90;;;;;;4233786;28;20189;-87